sensor_id;sensor_type;location;lat;lon;timestamp;P1;durP1;ratioP1;P2;durP2;ratioP2
31514;SDS011;40526;52.088;17.020;2023-12-20T00:00:05;9.77;;;7.15;;
31514;SDS011;40526;52.088;17.020;2023-12-20T00:05:08;9.95;;;7.85;;
31514;SDS011;40526;52.088;17.020;2023-12-20T00:10:12;10.32;;;7.70;;
31514;SDS011;40526;52.088;17.020;2023-12-20T00:15:14;9.10;;;7.50;;
31514;SDS011;40526;52.088;17.020;2023-12-20T00:20:17;9.68;;;7.47;;
31514;SDS011;40526;52.088;17.020;2023-12-20T00:25:21;8.18;;;6.50;;
31514;SDS011;40526;52.088;17.020;2023-12-20T00:30:24;9.88;;;7.20;;
31514;SDS011;40526;52.088;17.020;2023-12-20T00:35:26;9.35;;;7.55;;
31514;SDS011;40526;52.088;17.020;2023-12-20T00:40:30;10.27;;;7.43;;
31514;SDS011;40526;52.088;17.020;2023-12-20T00:45:33;10.82;;;7.60;;
31514;SDS011;40526;52.088;17.020;2023-12-20T00:50:35;10.23;;;7.40;;
31514;SDS011;40526;52.088;17.020;2023-12-20T00:55:39;11.25;;;8.02;;
31514;SDS011;40526;52.088;17.020;2023-12-20T01:00:42;10.38;;;7.65;;
31514;SDS011;40526;52.088;17.020;2023-12-20T01:05:44;10.60;;;7.68;;
31514;SDS011;40526;52.088;17.020;2023-12-20T01:10:48;10.32;;;7.88;;
31514;SDS011;40526;52.088;17.020;2023-12-20T01:15:50;10.52;;;7.70;;
31514;SDS011;40526;52.088;17.020;2023-12-20T01:20:53;11.25;;;8.38;;
31514;SDS011;40526;52.088;17.020;2023-12-20T01:25:56;8.77;;;7.03;;
31514;SDS011;40526;52.088;17.020;2023-12-20T01:31:00;9.90;;;7.30;;
31514;SDS011;40526;52.088;17.020;2023-12-20T01:36:03;9.65;;;7.63;;
31514;SDS011;40526;52.088;17.020;2023-12-20T01:41:07;12.02;;;8.57;;
31514;SDS011;40526;52.088;17.020;2023-12-20T01:46:09;10.63;;;7.40;;
31514;SDS011;40526;52.088;17.020;2023-12-20T01:51:12;10.00;;;7.38;;
31514;SDS011;40526;52.088;17.020;2023-12-20T01:56:17;9.35;;;7.07;;
31514;SDS011;40526;52.088;17.020;2023-12-20T02:01:19;10.07;;;6.78;;
31514;SDS011;40526;52.088;17.020;2023-12-20T02:06:22;11.02;;;7.20;;
31514;SDS011;40526;52.088;17.020;2023-12-20T02:11:26;10.50;;;7.63;;
31514;SDS011;40526;52.088;17.020;2023-12-20T02:16:29;10.00;;;7.57;;
31514;SDS011;40526;52.088;17.020;2023-12-20T02:21:33;13.35;;;7.07;;
31514;SDS011;40526;52.088;17.020;2023-12-20T02:26:36;8.13;;;6.45;;
31514;SDS011;40526;52.088;17.020;2023-12-20T02:31:38;11.02;;;6.28;;
31514;SDS011;40526;52.088;17.020;2023-12-20T02:36:42;10.02;;;7.43;;
31514;SDS011;40526;52.088;17.020;2023-12-20T02:41:44;9.43;;;6.53;;
31514;SDS011;40526;52.088;17.020;2023-12-20T02:46:47;8.52;;;6.35;;
31514;SDS011;40526;52.088;17.020;2023-12-20T02:51:51;7.53;;;6.32;;
31514;SDS011;40526;52.088;17.020;2023-12-20T02:56:53;8.10;;;6.85;;
31514;SDS011;40526;52.088;17.020;2023-12-20T03:01:56;7.47;;;5.95;;
31514;SDS011;40526;52.088;17.020;2023-12-20T03:07:00;8.32;;;6.22;;
31514;SDS011;40526;52.088;17.020;2023-12-20T03:12:03;8.50;;;6.13;;
31514;SDS011;40526;52.088;17.020;2023-12-20T03:17:06;9.02;;;6.40;;
31514;SDS011;40526;52.088;17.020;2023-12-20T03:22:11;7.75;;;5.93;;
31514;SDS011;40526;52.088;17.020;2023-12-20T03:27:14;8.57;;;6.45;;
31514;SDS011;40526;52.088;17.020;2023-12-20T03:32:17;8.50;;;6.18;;
31514;SDS011;40526;52.088;17.020;2023-12-20T03:37:22;7.70;;;5.85;;
31514;SDS011;40526;52.088;17.020;2023-12-20T03:42:24;8.90;;;6.28;;
31514;SDS011;40526;52.088;17.020;2023-12-20T03:47:27;8.38;;;5.53;;
31514;SDS011;40526;52.088;17.020;2023-12-20T03:52:30;8.32;;;6.20;;
31514;SDS011;40526;52.088;17.020;2023-12-20T03:57:33;9.85;;;6.53;;
31514;SDS011;40526;52.088;17.020;2023-12-20T04:02:35;8.75;;;5.47;;
31514;SDS011;40526;52.088;17.020;2023-12-20T04:07:39;7.80;;;5.60;;
31514;SDS011;40526;52.088;17.020;2023-12-20T04:12:41;7.13;;;5.47;;
31514;SDS011;40526;52.088;17.020;2023-12-20T04:17:44;9.43;;;6.75;;
31514;SDS011;40526;52.088;17.020;2023-12-20T04:22:48;8.38;;;6.38;;
31514;SDS011;40526;52.088;17.020;2023-12-20T04:27:50;7.47;;;6.03;;
31514;SDS011;40526;52.088;17.020;2023-12-20T04:32:52;8.63;;;6.38;;
31514;SDS011;40526;52.088;17.020;2023-12-20T04:37:56;9.95;;;7.18;;
31514;SDS011;40526;52.088;17.020;2023-12-20T04:42:59;8.57;;;6.47;;
31514;SDS011;40526;52.088;17.020;2023-12-20T04:48:03;8.43;;;6.63;;
31514;SDS011;40526;52.088;17.020;2023-12-20T04:53:08;10.05;;;6.88;;
31514;SDS011;40526;52.088;17.020;2023-12-20T04:58:10;9.45;;;6.97;;
31514;SDS011;40526;52.088;17.020;2023-12-20T05:03:14;9.82;;;6.95;;
31514;SDS011;40526;52.088;17.020;2023-12-20T05:08:19;8.75;;;5.70;;
31514;SDS011;40526;52.088;17.020;2023-12-20T05:13:21;9.63;;;6.25;;
31514;SDS011;40526;52.088;17.020;2023-12-20T05:18:24;11.38;;;7.78;;
31514;SDS011;40526;52.088;17.020;2023-12-20T05:23:28;8.30;;;5.95;;
31514;SDS011;40526;52.088;17.020;2023-12-20T05:28:30;9.30;;;6.10;;
31514;SDS011;40526;52.088;17.020;2023-12-20T05:33:33;7.97;;;5.63;;
31514;SDS011;40526;52.088;17.020;2023-12-20T05:38:38;10.07;;;6.70;;
31514;SDS011;40526;52.088;17.020;2023-12-20T05:43:42;9.05;;;5.60;;
31514;SDS011;40526;52.088;17.020;2023-12-20T05:48:45;9.93;;;7.20;;
31514;SDS011;40526;52.088;17.020;2023-12-20T05:53:51;9.48;;;6.20;;
31514;SDS011;40526;52.088;17.020;2023-12-20T05:58:53;8.77;;;6.47;;
31514;SDS011;40526;52.088;17.020;2023-12-20T06:03:57;13.02;;;6.40;;
31514;SDS011;40526;52.088;17.020;2023-12-20T06:09:02;8.50;;;6.45;;
31514;SDS011;40526;52.088;17.020;2023-12-20T06:14:05;9.90;;;6.65;;
31514;SDS011;40526;52.088;17.020;2023-12-20T06:19:08;9.52;;;6.50;;
31514;SDS011;40526;52.088;17.020;2023-12-20T06:24:13;7.88;;;6.50;;
31514;SDS011;40526;52.088;17.020;2023-12-20T06:29:16;10.00;;;6.97;;
31514;SDS011;40526;52.088;17.020;2023-12-20T06:34:18;10.88;;;7.20;;
31514;SDS011;40526;52.088;17.020;2023-12-20T06:39:22;11.85;;;8.05;;
31514;SDS011;40526;52.088;17.020;2023-12-20T06:44:24;13.35;;;7.35;;
31514;SDS011;40526;52.088;17.020;2023-12-20T06:49:27;10.48;;;7.15;;
31514;SDS011;40526;52.088;17.020;2023-12-20T06:54:31;10.35;;;6.90;;
31514;SDS011;40526;52.088;17.020;2023-12-20T06:59:38;10.98;;;7.20;;
31514;SDS011;40526;52.088;17.020;2023-12-20T07:04:41;9.93;;;7.13;;
31514;SDS011;40526;52.088;17.020;2023-12-20T07:09:44;11.73;;;7.70;;
31514;SDS011;40526;52.088;17.020;2023-12-20T07:14:47;9.38;;;6.80;;
31514;SDS011;40526;52.088;17.020;2023-12-20T07:19:49;9.88;;;6.70;;
31514;SDS011;40526;52.088;17.020;2023-12-20T07:24:53;10.48;;;6.18;;
31514;SDS011;40526;52.088;17.020;2023-12-20T07:29:56;8.90;;;6.25;;
31514;SDS011;40526;52.088;17.020;2023-12-20T07:34:58;9.70;;;6.70;;
31514;SDS011;40526;52.088;17.020;2023-12-20T07:40:02;10.05;;;6.47;;
31514;SDS011;40526;52.088;17.020;2023-12-20T07:45:05;12.57;;;6.93;;
31514;SDS011;40526;52.088;17.020;2023-12-20T07:50:08;11.40;;;6.60;;
31514;SDS011;40526;52.088;17.020;2023-12-20T07:55:13;13.75;;;7.25;;
31514;SDS011;40526;52.088;17.020;2023-12-20T08:00:15;10.35;;;6.00;;
31514;SDS011;40526;52.088;17.020;2023-12-20T08:05:18;10.73;;;6.68;;
31514;SDS011;40526;52.088;17.020;2023-12-20T08:10:22;8.65;;;5.78;;
31514;SDS011;40526;52.088;17.020;2023-12-20T08:15:24;12.35;;;6.60;;
31514;SDS011;40526;52.088;17.020;2023-12-20T08:20:26;8.60;;;6.00;;
31514;SDS011;40526;52.088;17.020;2023-12-20T08:25:30;8.02;;;5.72;;
31514;SDS011;40526;52.088;17.020;2023-12-20T08:30:33;7.88;;;6.15;;
31514;SDS011;40526;52.088;17.020;2023-12-20T08:35:35;9.27;;;5.80;;
31514;SDS011;40526;52.088;17.020;2023-12-20T08:40:39;8.27;;;5.32;;
31514;SDS011;40526;52.088;17.020;2023-12-20T08:45:41;7.93;;;5.43;;
31514;SDS011;40526;52.088;17.020;2023-12-20T08:50:44;8.25;;;5.70;;
31514;SDS011;40526;52.088;17.020;2023-12-20T08:55:51;7.93;;;5.47;;
31514;SDS011;40526;52.088;17.020;2023-12-20T09:00:54;7.32;;;5.90;;
31514;SDS011;40526;52.088;17.020;2023-12-20T09:05:57;8.43;;;5.63;;
31514;SDS011;40526;52.088;17.020;2023-12-20T09:11:02;8.63;;;5.82;;
31514;SDS011;40526;52.088;17.020;2023-12-20T09:16:04;9.15;;;6.05;;
31514;SDS011;40526;52.088;17.020;2023-12-20T09:21:08;8.45;;;5.75;;
31514;SDS011;40526;52.088;17.020;2023-12-20T09:26:14;8.65;;;6.20;;
31514;SDS011;40526;52.088;17.020;2023-12-20T09:31:17;7.10;;;5.05;;
31514;SDS011;40526;52.088;17.020;2023-12-20T09:36:22;8.50;;;5.90;;
31514;SDS011;40526;52.088;17.020;2023-12-20T09:41:27;7.22;;;5.45;;
31514;SDS011;40526;52.088;17.020;2023-12-20T09:46:31;11.00;;;6.40;;
31514;SDS011;40526;52.088;17.020;2023-12-20T09:51:35;14.18;;;8.15;;
31514;SDS011;40526;52.088;17.020;2023-12-20T09:56:41;10.90;;;6.75;;
31514;SDS011;40526;52.088;17.020;2023-12-20T10:01:44;7.85;;;5.45;;
31514;SDS011;40526;52.088;17.020;2023-12-20T10:06:47;9.00;;;5.00;;
31514;SDS011;40526;52.088;17.020;2023-12-20T10:11:53;7.70;;;4.68;;
31514;SDS011;40526;52.088;17.020;2023-12-20T10:17:01;5.53;;;3.97;;
31514;SDS011;40526;52.088;17.020;2023-12-20T10:22:04;6.97;;;3.97;;
31514;SDS011;40526;52.088;17.020;2023-12-20T10:27:09;4.90;;;3.45;;
31514;SDS011;40526;52.088;17.020;2023-12-20T10:32:21;4.95;;;3.30;;
31514;SDS011;40526;52.088;17.020;2023-12-20T10:37:24;3.80;;;3.00;;
31514;SDS011;40526;52.088;17.020;2023-12-20T10:42:30;3.40;;;2.92;;
31514;SDS011;40526;52.088;17.020;2023-12-20T10:47:33;6.28;;;3.15;;
31514;SDS011;40526;52.088;17.020;2023-12-20T10:52:39;4.55;;;3.47;;
31514;SDS011;40526;52.088;17.020;2023-12-20T10:57:43;6.95;;;3.67;;
31514;SDS011;40526;52.088;17.020;2023-12-20T11:02:51;4.78;;;3.00;;
31514;SDS011;40526;52.088;17.020;2023-12-20T11:07:55;2.45;;;2.20;;
31514;SDS011;40526;52.088;17.020;2023-12-20T11:13:06;3.88;;;2.60;;
31514;SDS011;40526;52.088;17.020;2023-12-20T11:18:12;3.90;;;2.67;;
31514;SDS011;40526;52.088;17.020;2023-12-20T11:23:16;5.70;;;2.80;;
31514;SDS011;40526;52.088;17.020;2023-12-20T11:28:22;3.92;;;2.17;;
31514;SDS011;40526;52.088;17.020;2023-12-20T11:33:26;5.18;;;2.45;;
31514;SDS011;40526;52.088;17.020;2023-12-20T11:38:35;6.88;;;2.47;;
31514;SDS011;40526;52.088;17.020;2023-12-20T11:43:39;4.60;;;2.28;;
31514;SDS011;40526;52.088;17.020;2023-12-20T11:48:42;5.22;;;3.13;;
31514;SDS011;40526;52.088;17.020;2023-12-20T11:53:51;4.65;;;4.25;;
31514;SDS011;40526;52.088;17.020;2023-12-20T11:58:55;8.45;;;3.63;;
31514;SDS011;40526;52.088;17.020;2023-12-20T12:04:04;4.68;;;3.13;;
31514;SDS011;40526;52.088;17.020;2023-12-20T12:09:07;6.22;;;3.85;;
31514;SDS011;40526;52.088;17.020;2023-12-20T12:14:11;9.80;;;5.60;;
31514;SDS011;40526;52.088;17.020;2023-12-20T12:19:22;6.40;;;4.18;;
31514;SDS011;40526;52.088;17.020;2023-12-20T12:24:25;7.25;;;3.65;;
31514;SDS011;40526;52.088;17.020;2023-12-20T12:29:30;5.75;;;3.92;;
31514;SDS011;40526;52.088;17.020;2023-12-20T12:34:34;5.88;;;3.20;;
31514;SDS011;40526;52.088;17.020;2023-12-20T12:39:36;5.88;;;2.70;;
31514;SDS011;40526;52.088;17.020;2023-12-20T12:44:41;3.22;;;2.67;;
31514;SDS011;40526;52.088;17.020;2023-12-20T12:49:46;3.15;;;2.83;;
31514;SDS011;40526;52.088;17.020;2023-12-20T12:54:48;4.13;;;2.78;;
31514;SDS011;40526;52.088;17.020;2023-12-20T12:59:52;4.72;;;2.40;;
31514;SDS011;40526;52.088;17.020;2023-12-20T13:04:55;4.78;;;3.38;;
31514;SDS011;40526;52.088;17.020;2023-12-20T13:09:57;7.68;;;3.67;;
31514;SDS011;40526;52.088;17.020;2023-12-20T13:15:02;7.13;;;3.45;;
31514;SDS011;40526;52.088;17.020;2023-12-20T13:20:05;5.45;;;4.15;;
31514;SDS011;40526;52.088;17.020;2023-12-20T13:25:08;5.20;;;3.60;;
31514;SDS011;40526;52.088;17.020;2023-12-20T13:30:12;3.65;;;3.00;;
31514;SDS011;40526;52.088;17.020;2023-12-20T13:35:15;5.95;;;3.67;;
31514;SDS011;40526;52.088;17.020;2023-12-20T13:40:18;3.10;;;2.80;;
31514;SDS011;40526;52.088;17.020;2023-12-20T13:45:22;6.05;;;2.50;;
31514;SDS011;40526;52.088;17.020;2023-12-20T13:50:26;9.15;;;6.05;;
31514;SDS011;40526;52.088;17.020;2023-12-20T13:55:31;5.15;;;3.25;;
31514;SDS011;40526;52.088;17.020;2023-12-20T14:00:36;4.30;;;2.80;;
31514;SDS011;40526;52.088;17.020;2023-12-20T14:05:39;5.75;;;3.35;;
31514;SDS011;40526;52.088;17.020;2023-12-20T14:10:43;6.63;;;2.90;;
31514;SDS011;40526;52.088;17.020;2023-12-20T14:15:48;5.97;;;2.90;;
31514;SDS011;40526;52.088;17.020;2023-12-20T14:20:50;5.35;;;3.63;;
31514;SDS011;40526;52.088;17.020;2023-12-20T14:25:54;6.30;;;2.72;;
31514;SDS011;40526;52.088;17.020;2023-12-20T14:31:00;6.95;;;2.60;;
31514;SDS011;40526;52.088;17.020;2023-12-20T14:36:03;5.25;;;2.53;;
31514;SDS011;40526;52.088;17.020;2023-12-20T14:41:05;6.68;;;2.45;;
31514;SDS011;40526;52.088;17.020;2023-12-20T14:46:10;9.30;;;2.70;;
31514;SDS011;40526;52.088;17.020;2023-12-20T14:51:13;8.00;;;2.25;;
31514;SDS011;40526;52.088;17.020;2023-12-20T14:56:15;6.70;;;2.67;;
31514;SDS011;40526;52.088;17.020;2023-12-20T15:01:19;4.70;;;2.53;;
31514;SDS011;40526;52.088;17.020;2023-12-20T15:06:23;3.38;;;3.03;;
31514;SDS011;40526;52.088;17.020;2023-12-20T15:11:25;7.50;;;3.90;;
31514;SDS011;40526;52.088;17.020;2023-12-20T15:16:30;5.13;;;3.03;;
31514;SDS011;40526;52.088;17.020;2023-12-20T15:21:32;6.97;;;3.45;;
31514;SDS011;40526;52.088;17.020;2023-12-20T15:26:40;7.63;;;3.05;;
31514;SDS011;40526;52.088;17.020;2023-12-20T15:31:45;2.67;;;2.42;;
31514;SDS011;40526;52.088;17.020;2023-12-20T15:36:47;7.15;;;3.00;;
31514;SDS011;40526;52.088;17.020;2023-12-20T15:41:49;5.63;;;3.15;;
31514;SDS011;40526;52.088;17.020;2023-12-20T15:46:54;11.68;;;3.13;;
31514;SDS011;40526;52.088;17.020;2023-12-20T15:51:56;3.95;;;3.55;;
31514;SDS011;40526;52.088;17.020;2023-12-20T15:56:58;4.03;;;3.08;;
31514;SDS011;40526;52.088;17.020;2023-12-20T16:02:02;4.95;;;2.90;;
31514;SDS011;40526;52.088;17.020;2023-12-20T16:07:04;5.93;;;2.92;;
31514;SDS011;40526;52.088;17.020;2023-12-20T16:12:07;5.07;;;3.47;;
31514;SDS011;40526;52.088;17.020;2023-12-20T16:17:11;3.78;;;3.38;;
31514;SDS011;40526;52.088;17.020;2023-12-20T16:22:14;3.20;;;2.40;;
31514;SDS011;40526;52.088;17.020;2023-12-20T16:27:17;4.65;;;3.58;;
31514;SDS011;40526;52.088;17.020;2023-12-20T16:32:21;5.15;;;2.35;;
31514;SDS011;40526;52.088;17.020;2023-12-20T16:37:23;4.40;;;3.00;;
31514;SDS011;40526;52.088;17.020;2023-12-20T16:42:26;6.93;;;2.40;;
31514;SDS011;40526;52.088;17.020;2023-12-20T16:47:30;3.00;;;1.95;;
31514;SDS011;40526;52.088;17.020;2023-12-20T16:52:32;3.95;;;2.72;;
31514;SDS011;40526;52.088;17.020;2023-12-20T16:57:36;4.07;;;2.30;;
31514;SDS011;40526;52.088;17.020;2023-12-20T17:02:40;4.35;;;2.90;;
31514;SDS011;40526;52.088;17.020;2023-12-20T17:07:42;6.10;;;2.88;;
31514;SDS011;40526;52.088;17.020;2023-12-20T17:12:46;5.05;;;2.97;;
31514;SDS011;40526;52.088;17.020;2023-12-20T17:17:51;5.85;;;2.67;;
31514;SDS011;40526;52.088;17.020;2023-12-20T17:22:54;4.47;;;2.90;;
31514;SDS011;40526;52.088;17.020;2023-12-20T17:27:56;5.38;;;2.83;;
31514;SDS011;40526;52.088;17.020;2023-12-20T17:33:00;5.35;;;2.90;;
31514;SDS011;40526;52.088;17.020;2023-12-20T17:38:04;10.48;;;3.53;;
31514;SDS011;40526;52.088;17.020;2023-12-20T17:43:06;8.65;;;3.28;;
31514;SDS011;40526;52.088;17.020;2023-12-20T17:48:11;8.52;;;3.70;;
31514;SDS011;40526;52.088;17.020;2023-12-20T17:53:14;5.40;;;2.50;;
31514;SDS011;40526;52.088;17.020;2023-12-20T17:58:16;4.68;;;2.72;;
31514;SDS011;40526;52.088;17.020;2023-12-20T18:03:20;5.82;;;3.15;;
31514;SDS011;40526;52.088;17.020;2023-12-20T18:08:22;3.75;;;2.10;;
31514;SDS011;40526;52.088;17.020;2023-12-20T18:13:25;6.13;;;2.50;;
31514;SDS011;40526;52.088;17.020;2023-12-20T18:18:28;5.97;;;2.45;;
31514;SDS011;40526;52.088;17.020;2023-12-20T18:23:30;6.65;;;2.80;;
31514;SDS011;40526;52.088;17.020;2023-12-20T18:28:33;4.85;;;2.65;;
31514;SDS011;40526;52.088;17.020;2023-12-20T18:33:36;12.68;;;2.13;;
31514;SDS011;40526;52.088;17.020;2023-12-20T18:38:39;8.75;;;2.65;;
31514;SDS011;40526;52.088;17.020;2023-12-20T18:43:41;5.28;;;2.80;;
31514;SDS011;40526;52.088;17.020;2023-12-20T18:48:44;7.22;;;2.60;;
31514;SDS011;40526;52.088;17.020;2023-12-20T18:53:47;4.45;;;2.97;;
31514;SDS011;40526;52.088;17.020;2023-12-20T18:58:49;8.73;;;3.15;;
31514;SDS011;40526;52.088;17.020;2023-12-20T19:03:53;5.40;;;3.30;;
31514;SDS011;40526;52.088;17.020;2023-12-20T19:08:56;5.53;;;3.13;;
31514;SDS011;40526;52.088;17.020;2023-12-20T19:13:58;5.38;;;3.03;;
31514;SDS011;40526;52.088;17.020;2023-12-20T19:19:02;4.93;;;3.60;;
31514;SDS011;40526;52.088;17.020;2023-12-20T19:24:04;7.18;;;3.30;;
31514;SDS011;40526;52.088;17.020;2023-12-20T19:29:07;5.40;;;3.53;;
31514;SDS011;40526;52.088;17.020;2023-12-20T19:34:11;10.45;;;3.15;;
31514;SDS011;40526;52.088;17.020;2023-12-20T19:39:13;7.18;;;2.95;;
31514;SDS011;40526;52.088;17.020;2023-12-20T19:44:16;6.90;;;3.25;;
31514;SDS011;40526;52.088;17.020;2023-12-20T19:49:21;4.07;;;2.60;;
31514;SDS011;40526;52.088;17.020;2023-12-20T19:54:23;7.38;;;2.90;;
31514;SDS011;40526;52.088;17.020;2023-12-20T19:59:26;4.97;;;2.85;;
31514;SDS011;40526;52.088;17.020;2023-12-20T20:04:29;7.65;;;2.42;;
31514;SDS011;40526;52.088;17.020;2023-12-20T20:09:32;2.50;;;2.10;;
31514;SDS011;40526;52.088;17.020;2023-12-20T20:14:34;5.88;;;2.53;;
31514;SDS011;40526;52.088;17.020;2023-12-20T20:19:38;5.53;;;3.22;;
31514;SDS011;40526;52.088;17.020;2023-12-20T20:24:41;5.78;;;2.65;;
31514;SDS011;40526;52.088;17.020;2023-12-20T20:29:43;7.07;;;2.72;;
31514;SDS011;40526;52.088;17.020;2023-12-20T20:34:47;6.75;;;2.40;;
31514;SDS011;40526;52.088;17.020;2023-12-20T20:39:49;6.57;;;2.25;;
31514;SDS011;40526;52.088;17.020;2023-12-20T20:44:52;5.72;;;2.25;;
31514;SDS011;40526;52.088;17.020;2023-12-20T20:49:56;8.25;;;3.45;;
31514;SDS011;40526;52.088;17.020;2023-12-20T20:54:58;8.25;;;2.80;;
31514;SDS011;40526;52.088;17.020;2023-12-20T21:00:00;7.97;;;3.00;;
31514;SDS011;40526;52.088;17.020;2023-12-20T21:05:05;7.72;;;2.63;;
31514;SDS011;40526;52.088;17.020;2023-12-20T21:10:08;2.85;;;2.45;;
31514;SDS011;40526;52.088;17.020;2023-12-20T21:15:10;7.35;;;2.72;;
31514;SDS011;40526;52.088;17.020;2023-12-20T21:20:15;4.25;;;2.63;;
31514;SDS011;40526;52.088;17.020;2023-12-20T21:25:18;8.75;;;3.53;;
31514;SDS011;40526;52.088;17.020;2023-12-20T21:30:21;2.90;;;2.53;;
31514;SDS011;40526;52.088;17.020;2023-12-20T21:35:25;4.53;;;2.13;;
31514;SDS011;40526;52.088;17.020;2023-12-20T21:40:27;8.38;;;2.67;;
31514;SDS011;40526;52.088;17.020;2023-12-20T21:45:30;3.75;;;2.30;;
31514;SDS011;40526;52.088;17.020;2023-12-20T21:50:34;7.18;;;2.80;;
31514;SDS011;40526;52.088;17.020;2023-12-20T21:55:36;5.05;;;2.70;;
31514;SDS011;40526;52.088;17.020;2023-12-20T22:00:40;7.97;;;2.20;;
31514;SDS011;40526;52.088;17.020;2023-12-20T22:05:43;11.60;;;3.42;;
31514;SDS011;40526;52.088;17.020;2023-12-20T22:10:46;6.30;;;2.05;;
31514;SDS011;40526;52.088;17.020;2023-12-20T22:15:49;5.95;;;2.10;;
31514;SDS011;40526;52.088;17.020;2023-12-20T22:20:53;5.30;;;2.25;;
31514;SDS011;40526;52.088;17.020;2023-12-20T22:25:55;6.18;;;2.47;;
31514;SDS011;40526;52.088;17.020;2023-12-20T22:30:58;5.07;;;2.42;;
31514;SDS011;40526;52.088;17.020;2023-12-20T22:36:02;12.00;;;2.80;;
31514;SDS011;40526;52.088;17.020;2023-12-20T22:41:04;6.97;;;3.30;;
31514;SDS011;40526;52.088;17.020;2023-12-20T22:46:09;7.57;;;2.78;;
31514;SDS011;40526;52.088;17.020;2023-12-20T22:51:12;6.28;;;2.45;;
31514;SDS011;40526;52.088;17.020;2023-12-20T22:56:14;6.35;;;2.50;;
31514;SDS011;40526;52.088;17.020;2023-12-20T23:01:16;4.88;;;2.47;;
31514;SDS011;40526;52.088;17.020;2023-12-20T23:06:20;3.70;;;2.35;;
31514;SDS011;40526;52.088;17.020;2023-12-20T23:11:23;7.28;;;2.38;;
31514;SDS011;40526;52.088;17.020;2023-12-20T23:16:25;8.43;;;2.53;;
31514;SDS011;40526;52.088;17.020;2023-12-20T23:21:29;5.38;;;2.00;;
31514;SDS011;40526;52.088;17.020;2023-12-20T23:26:31;3.20;;;2.03;;
31514;SDS011;40526;52.088;17.020;2023-12-20T23:31:33;6.72;;;2.70;;
31514;SDS011;40526;52.088;17.020;2023-12-20T23:36:37;3.60;;;1.92;;
31514;SDS011;40526;52.088;17.020;2023-12-20T23:41:39;5.63;;;2.42;;
31514;SDS011;40526;52.088;17.020;2023-12-20T23:46:41;4.80;;;3.13;;
31514;SDS011;40526;52.088;17.020;2023-12-20T23:51:45;3.40;;;1.88;;
31514;SDS011;40526;52.088;17.020;2023-12-20T23:56:47;2.47;;;2.05;;
